sensor_id;sensor_type;location;lat;lon;timestamp;P1;durP1;ratioP1;P2;durP2;ratioP2
38683;SDS011;24910;53.248;-6.134;2023-05-07T00:01:15;14.07;;;5.30;;
38683;SDS011;24910;53.248;-6.134;2023-05-07T00:03:47;12.75;;;5.57;;
38683;SDS011;24910;53.248;-6.134;2023-05-07T00:06:17;10.60;;;5.97;;
38683;SDS011;24910;53.248;-6.134;2023-05-07T00:08:46;9.80;;;4.80;;
38683;SDS011;24910;53.248;-6.134;2023-05-07T00:11:15;7.80;;;4.95;;
38683;SDS011;24910;53.248;-6.134;2023-05-07T00:13:44;7.75;;;5.10;;
38683;SDS011;24910;53.248;-6.134;2023-05-07T00:16:13;9.98;;;4.38;;
38683;SDS011;24910;53.248;-6.134;2023-05-07T00:18:42;8.27;;;4.65;;
38683;SDS011;24910;53.248;-6.134;2023-05-07T00:21:13;11.48;;;5.78;;
38683;SDS011;24910;53.248;-6.134;2023-05-07T00:23:42;7.80;;;5.10;;
38683;SDS011;24910;53.248;-6.134;2023-05-07T00:26:11;8.18;;;4.88;;
38683;SDS011;24910;53.248;-6.134;2023-05-07T00:28:46;7.90;;;4.85;;
38683;SDS011;24910;53.248;-6.134;2023-05-07T00:31:15;8.10;;;4.03;;
38683;SDS011;24910;53.248;-6.134;2023-05-07T00:33:44;8.55;;;4.05;;
38683;SDS011;24910;53.248;-6.134;2023-05-07T00:36:15;6.60;;;3.90;;
38683;SDS011;24910;53.248;-6.134;2023-05-07T00:38:44;7.43;;;4.38;;
38683;SDS011;24910;53.248;-6.134;2023-05-07T00:41:13;8.23;;;4.07;;
38683;SDS011;24910;53.248;-6.134;2023-05-07T00:43:42;6.85;;;4.10;;
38683;SDS011;24910;53.248;-6.134;2023-05-07T00:46:11;10.18;;;4.05;;
38683;SDS011;24910;53.248;-6.134;2023-05-07T00:48:41;9.80;;;4.05;;
38683;SDS011;24910;53.248;-6.134;2023-05-07T00:51:10;8.95;;;4.38;;
38683;SDS011;24910;53.248;-6.134;2023-05-07T00:53:41;9.00;;;4.32;;
38683;SDS011;24910;53.248;-6.134;2023-05-07T00:56:11;6.57;;;4.25;;
38683;SDS011;24910;53.248;-6.134;2023-05-07T00:58:40;9.13;;;3.80;;
38683;SDS011;24910;53.248;-6.134;2023-05-07T01:01:10;8.32;;;4.22;;
38683;SDS011;24910;53.248;-6.134;2023-05-07T01:03:39;7.90;;;4.25;;
38683;SDS011;24910;53.248;-6.134;2023-05-07T01:06:09;12.25;;;4.78;;
38683;SDS011;24910;53.248;-6.134;2023-05-07T01:08:45;8.32;;;4.20;;
38683;SDS011;24910;53.248;-6.134;2023-05-07T01:11:15;8.95;;;3.72;;
38683;SDS011;24910;53.248;-6.134;2023-05-07T01:13:46;9.95;;;3.97;;
38683;SDS011;24910;53.248;-6.134;2023-05-07T01:16:17;9.93;;;5.40;;
38683;SDS011;24910;53.248;-6.134;2023-05-07T01:18:47;9.95;;;4.43;;
38683;SDS011;24910;53.248;-6.134;2023-05-07T01:21:18;9.77;;;4.93;;
38683;SDS011;24910;53.248;-6.134;2023-05-07T01:23:51;10.80;;;4.50;;
38683;SDS011;24910;53.248;-6.134;2023-05-07T01:26:22;11.63;;;4.82;;
38683;SDS011;24910;53.248;-6.134;2023-05-07T01:28:51;10.60;;;5.38;;
38683;SDS011;24910;53.248;-6.134;2023-05-07T01:31:20;8.52;;;4.68;;
38683;SDS011;24910;53.248;-6.134;2023-05-07T01:33:50;11.13;;;5.30;;
38683;SDS011;24910;53.248;-6.134;2023-05-07T01:36:21;11.75;;;5.13;;
38683;SDS011;24910;53.248;-6.134;2023-05-07T01:38:54;9.93;;;5.25;;
38683;SDS011;24910;53.248;-6.134;2023-05-07T01:41:25;8.07;;;4.80;;
38683;SDS011;24910;53.248;-6.134;2023-05-07T01:43:54;9.93;;;4.70;;
38683;SDS011;24910;53.248;-6.134;2023-05-07T01:46:25;10.98;;;5.07;;
38683;SDS011;24910;53.248;-6.134;2023-05-07T01:48:55;12.38;;;4.60;;
38683;SDS011;24910;53.248;-6.134;2023-05-07T01:51:24;9.73;;;4.70;;
38683;SDS011;24910;53.248;-6.134;2023-05-07T01:53:54;12.23;;;4.45;;
38683;SDS011;24910;53.248;-6.134;2023-05-07T01:56:24;8.97;;;4.87;;
38683;SDS011;24910;53.248;-6.134;2023-05-07T01:58:54;8.67;;;4.60;;
38683;SDS011;24910;53.248;-6.134;2023-05-07T02:01:23;10.80;;;4.72;;
38683;SDS011;24910;53.248;-6.134;2023-05-07T02:03:53;10.32;;;4.40;;
38683;SDS011;24910;53.248;-6.134;2023-05-07T02:06:25;9.00;;;4.93;;
38683;SDS011;24910;53.248;-6.134;2023-05-07T02:09:01;9.25;;;4.32;;
38683;SDS011;24910;53.248;-6.134;2023-05-07T02:11:30;9.33;;;5.13;;
38683;SDS011;24910;53.248;-6.134;2023-05-07T02:13:59;11.52;;;4.75;;
38683;SDS011;24910;53.248;-6.134;2023-05-07T02:16:28;9.73;;;4.20;;
38683;SDS011;24910;53.248;-6.134;2023-05-07T02:18:58;6.80;;;4.00;;
38683;SDS011;24910;53.248;-6.134;2023-05-07T02:21:27;9.93;;;4.85;;
38683;SDS011;24910;53.248;-6.134;2023-05-07T02:23:57;7.53;;;4.55;;
38683;SDS011;24910;53.248;-6.134;2023-05-07T02:26:27;8.57;;;3.92;;
38683;SDS011;24910;53.248;-6.134;2023-05-07T02:28:57;6.57;;;4.30;;
38683;SDS011;24910;53.248;-6.134;2023-05-07T02:31:26;11.73;;;4.93;;
38683;SDS011;24910;53.248;-6.134;2023-05-07T02:33:55;12.32;;;4.50;;
38683;SDS011;24910;53.248;-6.134;2023-05-07T02:36:24;8.63;;;4.60;;
38683;SDS011;24910;53.248;-6.134;2023-05-07T02:39:00;9.52;;;4.60;;
38683;SDS011;24910;53.248;-6.134;2023-05-07T02:41:31;11.20;;;4.88;;
38683;SDS011;24910;53.248;-6.134;2023-05-07T02:44:00;9.17;;;4.63;;
38683;SDS011;24910;53.248;-6.134;2023-05-07T02:46:29;7.20;;;5.07;;
38683;SDS011;24910;53.248;-6.134;2023-05-07T02:49:07;10.10;;;5.22;;
38683;SDS011;24910;53.248;-6.134;2023-05-07T02:51:36;9.38;;;5.68;;
38683;SDS011;24910;53.248;-6.134;2023-05-07T02:54:10;8.43;;;4.93;;
38683;SDS011;24910;53.248;-6.134;2023-05-07T02:56:41;8.48;;;4.85;;
38683;SDS011;24910;53.248;-6.134;2023-05-07T02:59:10;9.98;;;5.95;;
38683;SDS011;24910;53.248;-6.134;2023-05-07T03:01:41;11.65;;;5.78;;
38683;SDS011;24910;53.248;-6.134;2023-05-07T03:04:12;9.13;;;5.10;;
38683;SDS011;24910;53.248;-6.134;2023-05-07T03:06:42;12.02;;;5.65;;
38683;SDS011;24910;53.248;-6.134;2023-05-07T03:09:11;15.25;;;7.47;;
38683;SDS011;24910;53.248;-6.134;2023-05-07T03:11:42;14.32;;;7.70;;
38683;SDS011;24910;53.248;-6.134;2023-05-07T03:14:11;14.23;;;6.17;;
38683;SDS011;24910;53.248;-6.134;2023-05-07T03:16:40;10.18;;;5.13;;
38683;SDS011;24910;53.248;-6.134;2023-05-07T03:19:09;10.73;;;5.47;;
38683;SDS011;24910;53.248;-6.134;2023-05-07T03:21:38;9.85;;;5.28;;
38683;SDS011;24910;53.248;-6.134;2023-05-07T03:24:07;14.80;;;7.43;;
38683;SDS011;24910;53.248;-6.134;2023-05-07T03:26:36;13.82;;;8.07;;
38683;SDS011;24910;53.248;-6.134;2023-05-07T03:29:07;12.48;;;6.50;;
38683;SDS011;24910;53.248;-6.134;2023-05-07T03:31:36;9.23;;;6.07;;
38683;SDS011;24910;53.248;-6.134;2023-05-07T03:34:05;10.25;;;5.28;;
38683;SDS011;24910;53.248;-6.134;2023-05-07T03:36:34;13.18;;;4.70;;
38683;SDS011;24910;53.248;-6.134;2023-05-07T03:39:07;10.48;;;4.53;;
38683;SDS011;24910;53.248;-6.134;2023-05-07T03:41:39;11.82;;;4.50;;
38683;SDS011;24910;53.248;-6.134;2023-05-07T03:44:10;10.65;;;4.65;;
38683;SDS011;24910;53.248;-6.134;2023-05-07T03:49:10;11.55;;;5.07;;
38683;SDS011;24910;53.248;-6.134;2023-05-07T03:51:39;8.80;;;4.57;;
38683;SDS011;24910;53.248;-6.134;2023-05-07T03:54:09;9.35;;;4.40;;
38683;SDS011;24910;53.248;-6.134;2023-05-07T03:56:42;7.55;;;4.63;;
38683;SDS011;24910;53.248;-6.134;2023-05-07T03:59:13;8.32;;;4.30;;
38683;SDS011;24910;53.248;-6.134;2023-05-07T04:01:44;8.30;;;4.05;;
38683;SDS011;24910;53.248;-6.134;2023-05-07T04:04:16;8.52;;;3.83;;
38683;SDS011;24910;53.248;-6.134;2023-05-07T04:06:46;5.70;;;3.97;;
38683;SDS011;24910;53.248;-6.134;2023-05-07T04:09:15;7.28;;;3.88;;
38683;SDS011;24910;53.248;-6.134;2023-05-07T04:11:46;5.63;;;3.72;;
38683;SDS011;24910;53.248;-6.134;2023-05-07T04:14:16;7.60;;;3.92;;
38683;SDS011;24910;53.248;-6.134;2023-05-07T04:16:47;6.63;;;3.63;;
38683;SDS011;24910;53.248;-6.134;2023-05-07T04:19:16;5.40;;;3.28;;
38683;SDS011;24910;53.248;-6.134;2023-05-07T04:21:48;7.68;;;3.92;;
38683;SDS011;24910;53.248;-6.134;2023-05-07T04:24:17;5.97;;;4.00;;
38683;SDS011;24910;53.248;-6.134;2023-05-07T04:26:47;6.22;;;4.07;;
38683;SDS011;24910;53.248;-6.134;2023-05-07T04:29:22;9.45;;;4.05;;
38683;SDS011;24910;53.248;-6.134;2023-05-07T04:34:22;11.68;;;4.82;;
38683;SDS011;24910;53.248;-6.134;2023-05-07T04:36:52;9.02;;;4.53;;
38683;SDS011;24910;53.248;-6.134;2023-05-07T04:39:21;6.68;;;4.13;;
38683;SDS011;24910;53.248;-6.134;2023-05-07T04:41:50;9.07;;;4.30;;
38683;SDS011;24910;53.248;-6.134;2023-05-07T04:44:21;7.32;;;3.72;;
38683;SDS011;24910;53.248;-6.134;2023-05-07T04:46:50;12.37;;;4.10;;
38683;SDS011;24910;53.248;-6.134;2023-05-07T04:49:23;8.27;;;4.10;;
38683;SDS011;24910;53.248;-6.134;2023-05-07T04:51:54;9.80;;;4.63;;
38683;SDS011;24910;53.248;-6.134;2023-05-07T04:54:23;7.70;;;4.38;;
38683;SDS011;24910;53.248;-6.134;2023-05-07T04:56:52;8.77;;;5.03;;
38683;SDS011;24910;53.248;-6.134;2023-05-07T04:59:23;7.25;;;4.20;;
38683;SDS011;24910;53.248;-6.134;2023-05-07T05:01:52;7.47;;;3.93;;
38683;SDS011;24910;53.248;-6.134;2023-05-07T05:04:23;7.65;;;4.00;;
38683;SDS011;24910;53.248;-6.134;2023-05-07T05:06:52;8.25;;;3.78;;
38683;SDS011;24910;53.248;-6.134;2023-05-07T05:09:24;7.88;;;3.80;;
38683;SDS011;24910;53.248;-6.134;2023-05-07T05:11:54;7.53;;;3.50;;
38683;SDS011;24910;53.248;-6.134;2023-05-07T05:14:24;6.15;;;3.33;;
38683;SDS011;24910;53.248;-6.134;2023-05-07T05:16:54;4.57;;;2.75;;
38683;SDS011;24910;53.248;-6.134;2023-05-07T05:19:23;5.22;;;2.15;;
38683;SDS011;24910;53.248;-6.134;2023-05-07T05:21:52;7.68;;;2.50;;
38683;SDS011;24910;53.248;-6.134;2023-05-07T05:24:22;5.70;;;2.40;;
38683;SDS011;24910;53.248;-6.134;2023-05-07T05:26:52;7.53;;;2.60;;
38683;SDS011;24910;53.248;-6.134;2023-05-07T05:29:22;8.88;;;4.25;;
38683;SDS011;24910;53.248;-6.134;2023-05-07T05:31:53;6.53;;;3.70;;
38683;SDS011;24910;53.248;-6.134;2023-05-07T05:34:23;8.93;;;4.28;;
38683;SDS011;24910;53.248;-6.134;2023-05-07T05:36:52;5.97;;;3.60;;
38683;SDS011;24910;53.248;-6.134;2023-05-07T05:39:21;8.32;;;3.33;;
38683;SDS011;24910;53.248;-6.134;2023-05-07T05:41:50;7.57;;;3.00;;
38683;SDS011;24910;53.248;-6.134;2023-05-07T05:44:20;7.30;;;3.53;;
38683;SDS011;24910;53.248;-6.134;2023-05-07T05:46:51;4.70;;;3.30;;
38683;SDS011;24910;53.248;-6.134;2023-05-07T05:49:22;4.97;;;2.88;;
38683;SDS011;24910;53.248;-6.134;2023-05-07T05:51:51;6.22;;;2.58;;
38683;SDS011;24910;53.248;-6.134;2023-05-07T05:54:21;6.32;;;2.78;;
38683;SDS011;24910;53.248;-6.134;2023-05-07T05:56:50;8.40;;;3.10;;
38683;SDS011;24910;53.248;-6.134;2023-05-07T05:59:19;7.03;;;3.15;;
38683;SDS011;24910;53.248;-6.134;2023-05-07T06:01:48;8.10;;;2.95;;
38683;SDS011;24910;53.248;-6.134;2023-05-07T06:04:18;5.72;;;3.03;;
38683;SDS011;24910;53.248;-6.134;2023-05-07T06:06:48;6.10;;;3.05;;
38683;SDS011;24910;53.248;-6.134;2023-05-07T06:09:17;5.68;;;2.88;;
38683;SDS011;24910;53.248;-6.134;2023-05-07T06:11:46;5.90;;;3.00;;
38683;SDS011;24910;53.248;-6.134;2023-05-07T06:14:16;8.77;;;2.55;;
38683;SDS011;24910;53.248;-6.134;2023-05-07T06:16:45;5.97;;;3.03;;
38683;SDS011;24910;53.248;-6.134;2023-05-07T06:19:14;6.97;;;3.42;;
38683;SDS011;24910;53.248;-6.134;2023-05-07T06:21:46;7.63;;;3.90;;
38683;SDS011;24910;53.248;-6.134;2023-05-07T06:24:15;11.57;;;4.18;;
38683;SDS011;24910;53.248;-6.134;2023-05-07T06:26:44;7.30;;;4.00;;
38683;SDS011;24910;53.248;-6.134;2023-05-07T06:29:13;15.52;;;4.28;;
38683;SDS011;24910;53.248;-6.134;2023-05-07T06:31:43;7.25;;;3.90;;
38683;SDS011;24910;53.248;-6.134;2023-05-07T06:34:13;6.93;;;3.85;;
38683;SDS011;24910;53.248;-6.134;2023-05-07T06:36:42;6.28;;;3.42;;
38683;SDS011;24910;53.248;-6.134;2023-05-07T06:39:22;6.15;;;3.67;;
38683;SDS011;24910;53.248;-6.134;2023-05-07T06:41:52;7.35;;;3.50;;
38683;SDS011;24910;53.248;-6.134;2023-05-07T06:44:25;7.05;;;3.70;;
38683;SDS011;24910;53.248;-6.134;2023-05-07T06:49:38;8.82;;;3.45;;
38683;SDS011;24910;53.248;-6.134;2023-05-07T06:52:07;7.43;;;3.25;;
38683;SDS011;24910;53.248;-6.134;2023-05-07T06:54:38;4.28;;;3.20;;
38683;SDS011;24910;53.248;-6.134;2023-05-07T06:57:07;6.45;;;3.47;;
38683;SDS011;24910;53.248;-6.134;2023-05-07T06:59:36;8.82;;;4.13;;
38683;SDS011;24910;53.248;-6.134;2023-05-07T07:02:06;8.80;;;4.40;;
38683;SDS011;24910;53.248;-6.134;2023-05-07T07:04:35;10.32;;;4.50;;
38683;SDS011;24910;53.248;-6.134;2023-05-07T07:07:09;11.98;;;4.10;;
38683;SDS011;24910;53.248;-6.134;2023-05-07T07:09:41;9.07;;;3.42;;
38683;SDS011;24910;53.248;-6.134;2023-05-07T07:12:12;7.22;;;3.50;;
38683;SDS011;24910;53.248;-6.134;2023-05-07T07:14:42;7.70;;;3.78;;
38683;SDS011;24910;53.248;-6.134;2023-05-07T07:17:13;6.95;;;3.65;;
38683;SDS011;24910;53.248;-6.134;2023-05-07T07:19:42;7.53;;;3.90;;
38683;SDS011;24910;53.248;-6.134;2023-05-07T07:22:12;8.90;;;3.55;;
38683;SDS011;24910;53.248;-6.134;2023-05-07T07:24:42;6.55;;;3.50;;
38683;SDS011;24910;53.248;-6.134;2023-05-07T07:27:16;9.27;;;3.40;;
38683;SDS011;24910;53.248;-6.134;2023-05-07T07:29:45;11.50;;;4.05;;
38683;SDS011;24910;53.248;-6.134;2023-05-07T07:32:15;8.93;;;4.22;;
38683;SDS011;24910;53.248;-6.134;2023-05-07T07:34:44;13.20;;;3.78;;
38683;SDS011;24910;53.248;-6.134;2023-05-07T07:37:13;10.70;;;3.45;;
38683;SDS011;24910;53.248;-6.134;2023-05-07T07:39:45;10.05;;;3.90;;
38683;SDS011;24910;53.248;-6.134;2023-05-07T07:42:15;7.30;;;3.25;;
38683;SDS011;24910;53.248;-6.134;2023-05-07T07:44:47;8.85;;;3.40;;
38683;SDS011;24910;53.248;-6.134;2023-05-07T07:47:20;7.22;;;3.50;;
38683;SDS011;24910;53.248;-6.134;2023-05-07T07:49:50;7.97;;;3.67;;
38683;SDS011;24910;53.248;-6.134;2023-05-07T07:52:19;8.48;;;3.30;;
38683;SDS011;24910;53.248;-6.134;2023-05-07T07:54:50;9.48;;;3.47;;
38683;SDS011;24910;53.248;-6.134;2023-05-07T07:57:20;6.25;;;3.65;;
38683;SDS011;24910;53.248;-6.134;2023-05-07T07:59:50;7.88;;;3.60;;
38683;SDS011;24910;53.248;-6.134;2023-05-07T08:02:21;8.45;;;3.58;;
38683;SDS011;24910;53.248;-6.134;2023-05-07T08:04:51;5.70;;;3.47;;
38683;SDS011;24910;53.248;-6.134;2023-05-07T08:07:20;8.73;;;3.65;;
38683;SDS011;24910;53.248;-6.134;2023-05-07T08:09:51;9.85;;;3.85;;
38683;SDS011;24910;53.248;-6.134;2023-05-07T08:12:23;8.23;;;3.80;;
38683;SDS011;24910;53.248;-6.134;2023-05-07T08:14:54;6.30;;;3.90;;
38683;SDS011;24910;53.248;-6.134;2023-05-07T08:17:23;7.65;;;3.85;;
38683;SDS011;24910;53.248;-6.134;2023-05-07T08:19:56;11.07;;;4.60;;
38683;SDS011;24910;53.248;-6.134;2023-05-07T08:22:25;8.70;;;3.85;;
38683;SDS011;24910;53.248;-6.134;2023-05-07T08:24:56;7.50;;;3.85;;
38683;SDS011;24910;53.248;-6.134;2023-05-07T08:27:25;11.73;;;3.90;;
38683;SDS011;24910;53.248;-6.134;2023-05-07T08:29:55;8.10;;;3.95;;
38683;SDS011;24910;53.248;-6.134;2023-05-07T08:32:24;10.40;;;4.20;;
38683;SDS011;24910;53.248;-6.134;2023-05-07T08:34:55;8.40;;;4.25;;
38683;SDS011;24910;53.248;-6.134;2023-05-07T08:37:24;10.20;;;4.07;;
38683;SDS011;24910;53.248;-6.134;2023-05-07T08:39:53;8.80;;;3.95;;
38683;SDS011;24910;53.248;-6.134;2023-05-07T08:42:27;6.32;;;3.75;;
38683;SDS011;24910;53.248;-6.134;2023-05-07T08:44:58;8.32;;;3.67;;
38683;SDS011;24910;53.248;-6.134;2023-05-07T08:50:03;8.82;;;3.72;;
38683;SDS011;24910;53.248;-6.134;2023-05-07T08:52:33;6.90;;;3.75;;
38683;SDS011;24910;53.248;-6.134;2023-05-07T08:55:03;7.30;;;3.20;;
38683;SDS011;24910;53.248;-6.134;2023-05-07T08:57:35;7.38;;;3.97;;
38683;SDS011;24910;53.248;-6.134;2023-05-07T09:00:08;8.35;;;3.72;;
38683;SDS011;24910;53.248;-6.134;2023-05-07T09:02:40;7.75;;;3.83;;
38683;SDS011;24910;53.248;-6.134;2023-05-07T09:05:10;8.40;;;3.45;;
38683;SDS011;24910;53.248;-6.134;2023-05-07T09:07:39;8.88;;;3.63;;
38683;SDS011;24910;53.248;-6.134;2023-05-07T09:10:09;12.27;;;4.13;;
38683;SDS011;24910;53.248;-6.134;2023-05-07T09:12:42;10.90;;;3.72;;
38683;SDS011;24910;53.248;-6.134;2023-05-07T09:15:13;10.82;;;3.53;;
38683;SDS011;24910;53.248;-6.134;2023-05-07T09:17:46;7.50;;;2.95;;
38683;SDS011;24910;53.248;-6.134;2023-05-07T09:22:46;7.10;;;2.78;;
38683;SDS011;24910;53.248;-6.134;2023-05-07T09:25:22;7.03;;;3.05;;
38683;SDS011;24910;53.248;-6.134;2023-05-07T09:28:00;7.95;;;3.20;;
38683;SDS011;24910;53.248;-6.134;2023-05-07T09:30:30;5.57;;;3.08;;
38683;SDS011;24910;53.248;-6.134;2023-05-07T09:33:08;8.38;;;3.10;;
38683;SDS011;24910;53.248;-6.134;2023-05-07T09:35:41;8.00;;;3.40;;
38683;SDS011;24910;53.248;-6.134;2023-05-07T09:38:15;11.43;;;3.47;;
38683;SDS011;24910;53.248;-6.134;2023-05-07T09:40:57;6.63;;;3.03;;
38683;SDS011;24910;53.248;-6.134;2023-05-07T09:43:34;8.25;;;3.03;;
38683;SDS011;24910;53.248;-6.134;2023-05-07T09:46:07;7.47;;;2.80;;
38683;SDS011;24910;53.248;-6.134;2023-05-07T09:48:45;8.93;;;3.10;;
38683;SDS011;24910;53.248;-6.134;2023-05-07T09:53:50;4.93;;;2.53;;
38683;SDS011;24910;53.248;-6.134;2023-05-07T09:56:22;5.53;;;2.45;;
38683;SDS011;24910;53.248;-6.134;2023-05-07T09:58:54;5.43;;;2.67;;
38683;SDS011;24910;53.248;-6.134;2023-05-07T10:01:30;7.28;;;2.97;;
38683;SDS011;24910;53.248;-6.134;2023-05-07T10:04:01;7.70;;;2.80;;
38683;SDS011;24910;53.248;-6.134;2023-05-07T10:06:32;5.88;;;2.53;;
38683;SDS011;24910;53.248;-6.134;2023-05-07T10:09:02;6.65;;;2.80;;
38683;SDS011;24910;53.248;-6.134;2023-05-07T10:11:32;8.70;;;3.20;;
38683;SDS011;24910;53.248;-6.134;2023-05-07T10:14:04;8.13;;;2.90;;
38683;SDS011;24910;53.248;-6.134;2023-05-07T10:16:35;6.45;;;2.70;;
38683;SDS011;24910;53.248;-6.134;2023-05-07T10:19:10;7.68;;;3.08;;
38683;SDS011;24910;53.248;-6.134;2023-05-07T10:21:44;6.18;;;2.80;;
38683;SDS011;24910;53.248;-6.134;2023-05-07T10:24:20;9.23;;;3.25;;
38683;SDS011;24910;53.248;-6.134;2023-05-07T10:26:53;11.02;;;3.75;;
38683;SDS011;24910;53.248;-6.134;2023-05-07T10:32:07;9.48;;;3.78;;
38683;SDS011;24910;53.248;-6.134;2023-05-07T10:34:48;8.60;;;4.32;;
38683;SDS011;24910;53.248;-6.134;2023-05-07T10:37:21;11.27;;;4.40;;
38683;SDS011;24910;53.248;-6.134;2023-05-07T10:39:52;6.53;;;4.30;;
38683;SDS011;24910;53.248;-6.134;2023-05-07T10:42:21;8.30;;;4.20;;
38683;SDS011;24910;53.248;-6.134;2023-05-07T10:44:54;9.10;;;4.05;;
38683;SDS011;24910;53.248;-6.134;2023-05-07T10:47:28;8.23;;;4.57;;
38683;SDS011;24910;53.248;-6.134;2023-05-07T10:59:34;10.85;;;5.65;;
38683;SDS011;24910;53.248;-6.134;2023-05-07T11:05:45;9.63;;;5.63;;
38683;SDS011;24910;53.248;-6.134;2023-05-07T11:08:24;9.37;;;3.90;;
38683;SDS011;24910;53.248;-6.134;2023-05-07T11:10:59;8.63;;;4.50;;
38683;SDS011;24910;53.248;-6.134;2023-05-07T11:13:51;7.85;;;4.38;;
38683;SDS011;24910;53.248;-6.134;2023-05-07T11:16:28;9.13;;;4.68;;
38683;SDS011;24910;53.248;-6.134;2023-05-07T11:19:17;10.80;;;5.43;;
38683;SDS011;24910;53.248;-6.134;2023-05-07T11:22:41;8.55;;;5.10;;
38683;SDS011;24910;53.248;-6.134;2023-05-07T11:25:21;14.63;;;6.60;;
38683;SDS011;24910;53.248;-6.134;2023-05-07T11:28:17;10.80;;;5.20;;
38683;SDS011;24910;53.248;-6.134;2023-05-07T11:30:57;10.88;;;4.75;;
38683;SDS011;24910;53.248;-6.134;2023-05-07T11:33:29;10.90;;;5.03;;
38683;SDS011;24910;53.248;-6.134;2023-05-07T11:36:02;9.68;;;4.25;;
38683;SDS011;24910;53.248;-6.134;2023-05-07T11:38:38;8.60;;;2.88;;
38683;SDS011;24910;53.248;-6.134;2023-05-07T11:41:07;12.70;;;3.20;;
38683;SDS011;24910;53.248;-6.134;2023-05-07T11:43:37;8.77;;;2.80;;
38683;SDS011;24910;53.248;-6.134;2023-05-07T11:46:07;10.80;;;3.45;;
38683;SDS011;24910;53.248;-6.134;2023-05-07T11:48:38;10.60;;;3.88;;
38683;SDS011;24910;53.248;-6.134;2023-05-07T11:51:08;10.37;;;3.70;;
38683;SDS011;24910;53.248;-6.134;2023-05-07T11:53:41;11.27;;;3.53;;
38683;SDS011;24910;53.248;-6.134;2023-05-07T11:56:18;11.30;;;4.07;;
38683;SDS011;24910;53.248;-6.134;2023-05-07T11:58:47;11.43;;;4.07;;
38683;SDS011;24910;53.248;-6.134;2023-05-07T12:01:19;10.27;;;3.83;;
38683;SDS011;24910;53.248;-6.134;2023-05-07T12:03:48;10.23;;;3.47;;
38683;SDS011;24910;53.248;-6.134;2023-05-07T12:06:17;8.82;;;3.55;;
38683;SDS011;24910;53.248;-6.134;2023-05-07T12:08:48;7.60;;;3.40;;
38683;SDS011;24910;53.248;-6.134;2023-05-07T12:11:21;7.95;;;3.00;;
38683;SDS011;24910;53.248;-6.134;2023-05-07T12:13:53;7.22;;;2.60;;
38683;SDS011;24910;53.248;-6.134;2023-05-07T12:16:26;7.78;;;3.03;;
38683;SDS011;24910;53.248;-6.134;2023-05-07T12:18:55;10.35;;;3.58;;
38683;SDS011;24910;53.248;-6.134;2023-05-07T12:21:26;7.63;;;2.95;;
38683;SDS011;24910;53.248;-6.134;2023-05-07T12:23:56;9.38;;;3.10;;
38683;SDS011;24910;53.248;-6.134;2023-05-07T12:26:25;7.65;;;2.70;;
38683;SDS011;24910;53.248;-6.134;2023-05-07T12:28:54;8.95;;;3.10;;
38683;SDS011;24910;53.248;-6.134;2023-05-07T12:31:25;9.30;;;3.20;;
38683;SDS011;24910;53.248;-6.134;2023-05-07T12:33:55;10.60;;;3.45;;
38683;SDS011;24910;53.248;-6.134;2023-05-07T12:36:24;10.38;;;3.22;;
38683;SDS011;24910;53.248;-6.134;2023-05-07T12:38:53;10.85;;;3.72;;
38683;SDS011;24910;53.248;-6.134;2023-05-07T12:41:24;13.65;;;4.25;;
38683;SDS011;24910;53.248;-6.134;2023-05-07T12:43:56;5.70;;;2.42;;
38683;SDS011;24910;53.248;-6.134;2023-05-07T12:46:25;2.47;;;1.77;;
38683;SDS011;24910;53.248;-6.134;2023-05-07T12:48:54;1.90;;;1.50;;
38683;SDS011;24910;53.248;-6.134;2023-05-07T12:51:23;4.60;;;1.80;;
38683;SDS011;24910;53.248;-6.134;2023-05-07T12:53:53;4.40;;;2.10;;
38683;SDS011;24910;53.248;-6.134;2023-05-07T12:56:26;3.85;;;1.95;;
38683;SDS011;24910;53.248;-6.134;2023-05-07T12:58:57;5.80;;;2.40;;
38683;SDS011;24910;53.248;-6.134;2023-05-07T13:01:28;6.75;;;2.47;;
38683;SDS011;24910;53.248;-6.134;2023-05-07T13:04:00;7.07;;;2.58;;
38683;SDS011;24910;53.248;-6.134;2023-05-07T13:06:31;9.85;;;2.90;;
38683;SDS011;24910;53.248;-6.134;2023-05-07T13:09:00;8.20;;;2.88;;
38683;SDS011;24910;53.248;-6.134;2023-05-07T13:11:30;10.27;;;3.58;;
38683;SDS011;24910;53.248;-6.134;2023-05-07T13:13:59;13.23;;;3.47;;
38683;SDS011;24910;53.248;-6.134;2023-05-07T13:16:28;13.45;;;3.58;;
38683;SDS011;24910;53.248;-6.134;2023-05-07T13:18:58;2.78;;;1.60;;
38683;SDS011;24910;53.248;-6.134;2023-05-07T13:21:27;4.43;;;1.67;;
38683;SDS011;24910;53.248;-6.134;2023-05-07T13:23:57;3.85;;;1.50;;
38683;SDS011;24910;53.248;-6.134;2023-05-07T13:26:26;4.25;;;2.05;;
38683;SDS011;24910;53.248;-6.134;2023-05-07T13:28:57;3.60;;;1.70;;
38683;SDS011;24910;53.248;-6.134;2023-05-07T13:31:26;2.97;;;1.50;;
38683;SDS011;24910;53.248;-6.134;2023-05-07T13:33:55;3.40;;;1.75;;
38683;SDS011;24910;53.248;-6.134;2023-05-07T13:36:24;3.42;;;1.77;;
38683;SDS011;24910;53.248;-6.134;2023-05-07T13:38:53;4.93;;;1.90;;
38683;SDS011;24910;53.248;-6.134;2023-05-07T13:41:22;5.22;;;1.90;;
38683;SDS011;24910;53.248;-6.134;2023-05-07T13:43:51;3.55;;;1.70;;
38683;SDS011;24910;53.248;-6.134;2023-05-07T13:46:22;2.17;;;1.60;;
38683;SDS011;24910;53.248;-6.134;2023-05-07T13:48:51;5.18;;;1.80;;
38683;SDS011;24910;53.248;-6.134;2023-05-07T13:51:20;3.45;;;1.80;;
38683;SDS011;24910;53.248;-6.134;2023-05-07T13:53:49;3.30;;;1.60;;
38683;SDS011;24910;53.248;-6.134;2023-05-07T13:56:19;2.75;;;1.85;;
38683;SDS011;24910;53.248;-6.134;2023-05-07T13:58:48;2.58;;;1.60;;
38683;SDS011;24910;53.248;-6.134;2023-05-07T14:01:28;3.97;;;1.63;;
38683;SDS011;24910;53.248;-6.134;2023-05-07T14:03:57;3.15;;;1.80;;
38683;SDS011;24910;53.248;-6.134;2023-05-07T14:06:26;3.63;;;1.70;;
38683;SDS011;24910;53.248;-6.134;2023-05-07T14:08:56;6.35;;;1.90;;
38683;SDS011;24910;53.248;-6.134;2023-05-07T14:11:25;4.97;;;2.03;;
38683;SDS011;24910;53.248;-6.134;2023-05-07T14:13:54;3.38;;;2.05;;
38683;SDS011;24910;53.248;-6.134;2023-05-07T14:16:24;3.65;;;2.17;;
38683;SDS011;24910;53.248;-6.134;2023-05-07T14:18:54;3.15;;;1.95;;
38683;SDS011;24910;53.248;-6.134;2023-05-07T14:21:24;4.60;;;2.22;;
38683;SDS011;24910;53.248;-6.134;2023-05-07T14:23:54;6.18;;;2.08;;
38683;SDS011;24910;53.248;-6.134;2023-05-07T14:26:24;5.68;;;2.10;;
38683;SDS011;24910;53.248;-6.134;2023-05-07T14:28:54;4.77;;;2.17;;
38683;SDS011;24910;53.248;-6.134;2023-05-07T14:31:25;15.55;;;4.03;;
38683;SDS011;24910;53.248;-6.134;2023-05-07T14:33:56;9.00;;;3.05;;
38683;SDS011;24910;53.248;-6.134;2023-05-07T14:38:54;21.63;;;4.30;;
38683;SDS011;24910;53.248;-6.134;2023-05-07T14:41:30;22.67;;;5.72;;
38683;SDS011;24910;53.248;-6.134;2023-05-07T14:44:00;22.23;;;5.82;;
38683;SDS011;24910;53.248;-6.134;2023-05-07T14:46:31;22.80;;;7.22;;
38683;SDS011;24910;53.248;-6.134;2023-05-07T14:49:01;25.67;;;6.20;;
38683;SDS011;24910;53.248;-6.134;2023-05-07T14:51:33;20.20;;;5.88;;
38683;SDS011;24910;53.248;-6.134;2023-05-07T14:54:02;23.83;;;5.90;;
38683;SDS011;24910;53.248;-6.134;2023-05-07T14:56:31;24.88;;;5.80;;
38683;SDS011;24910;53.248;-6.134;2023-05-07T14:59:01;25.17;;;6.22;;
38683;SDS011;24910;53.248;-6.134;2023-05-07T15:01:31;20.15;;;5.90;;
38683;SDS011;24910;53.248;-6.134;2023-05-07T15:04:01;16.95;;;5.72;;
38683;SDS011;24910;53.248;-6.134;2023-05-07T15:06:32;21.05;;;6.05;;
38683;SDS011;24910;53.248;-6.134;2023-05-07T15:09:01;15.75;;;5.10;;
38683;SDS011;24910;53.248;-6.134;2023-05-07T15:11:30;20.20;;;5.65;;
38683;SDS011;24910;53.248;-6.134;2023-05-07T15:13:59;19.58;;;5.93;;
38683;SDS011;24910;53.248;-6.134;2023-05-07T15:16:28;20.55;;;5.68;;
38683;SDS011;24910;53.248;-6.134;2023-05-07T15:18:58;18.85;;;6.47;;
38683;SDS011;24910;53.248;-6.134;2023-05-07T15:21:29;18.90;;;5.63;;
38683;SDS011;24910;53.248;-6.134;2023-05-07T15:24:01;15.35;;;5.88;;
38683;SDS011;24910;53.248;-6.134;2023-05-07T15:26:33;21.45;;;5.88;;